createdAt,value
2017-11-25T00:05:55.811Z,59.70
2017-11-25T00:35:31.288Z,60.50
2017-11-25T00:38:16.825Z,60.70
2017-11-25T00:57:24.986Z,60.50
2017-11-25T00:59:55.313Z,60.30
2017-11-25T01:02:41.821Z,60.50
2017-11-25T01:18:05.839Z,61.00
2017-11-25T01:20:39.893Z,61.40
2017-11-25T01:23:09.910Z,62.00
2017-11-25T01:25:39.751Z,62.00
2017-11-25T01:28:09.047Z,62.10
2017-11-25T01:30:38.107Z,62.00
2017-11-25T01:33:13.726Z,61.60
2017-11-25T01:35:44.873Z,61.60
2017-11-25T01:38:17.708Z,61.30
2017-11-25T01:40:55.203Z,61.30
2017-11-25T01:43:29.337Z,61.90
2017-11-25T01:46:07.694Z,62.00
2017-11-25T02:24:37.282Z,62.00
2017-11-25T02:34:11.113Z,62.70
2017-11-25T02:36:40.211Z,62.10
2017-11-25T02:39:09.029Z,62.80
2017-11-25T02:41:38.746Z,63.10
2017-11-25T02:44:09.489Z,62.70
2017-11-25T02:46:43.787Z,62.90
2017-11-25T02:49:16.451Z,62.80
2017-11-25T02:51:45.872Z,62.40
2017-11-25T02:56:55.363Z,62.50
2017-11-25T02:59:31.284Z,62.50
2017-11-25T03:02:04.589Z,62.90
2017-11-25T03:04:43.978Z,62.50
2017-11-25T03:07:32.757Z,62.40
2017-11-25T03:10:02.691Z,62.20
2017-11-25T03:12:38.583Z,61.90
2017-11-25T03:15:12.692Z,61.90
2017-11-25T03:26:54.770Z,63.00
2017-11-25T03:29:26.385Z,63.00
2017-11-25T04:14:34.589Z,64.20
2017-11-25T04:19:36.472Z,63.80
2017-11-25T04:22:06.163Z,63.80
2017-11-25T04:24:34.089Z,63.70
2017-11-25T04:27:04.166Z,63.80
2017-11-25T04:29:33.928Z,64.00
2017-11-25T04:32:01.857Z,64.50
2017-11-25T04:34:29.781Z,64.80
2017-11-25T04:36:58.605Z,65.10
2017-11-25T04:39:35.586Z,64.80
2017-11-25T04:42:06.475Z,64.20
2017-11-25T04:47:11.664Z,64.00
2017-11-25T04:49:40.753Z,64.20
2017-11-25T04:55:35.857Z,63.80
2017-11-25T04:58:07.920Z,63.50
2017-11-25T05:03:30.682Z,63.50
2017-11-25T05:05:58.525Z,64.20
2017-11-25T05:08:27.230Z,72.80
2017-11-25T05:10:55.025Z,72.70
2017-11-25T05:13:22.855Z,67.60
2017-11-25T05:15:51.827Z,69.10
2017-11-25T05:18:19.714Z,66.50
2017-11-25T05:20:47.518Z,64.60
2017-11-25T05:23:15.540Z,57.70
2017-11-25T05:25:43.487Z,55.00
2017-11-25T05:28:18.574Z,56.80
2017-11-25T05:30:46.763Z,58.20
2017-11-25T05:33:14.685Z,59.10
2017-11-25T05:35:42.446Z,69.20
2017-11-25T05:38:10.317Z,66.50
2017-11-25T05:40:38.065Z,55.80
2017-11-25T05:43:05.917Z,63.80
2017-11-25T05:45:33.922Z,63.10
2017-11-25T05:48:01.741Z,58.50
2017-11-25T05:50:29.531Z,59.60
2017-11-25T05:52:57.389Z,55.00
2017-11-25T05:55:26.227Z,54.10
2017-11-25T05:57:55.092Z,55.70
2017-11-25T06:00:23.006Z,57.80
2017-11-25T06:02:51.064Z,61.80
2017-11-25T06:05:18.884Z,62.50
2017-11-25T06:07:48.535Z,63.20
2017-11-25T06:10:16.481Z,60.30
2017-11-25T06:12:44.385Z,59.80
2017-11-25T06:15:13.133Z,58.40
2017-11-25T06:17:41.083Z,58.20
2017-11-25T06:20:09.039Z,59.20
2017-11-25T06:22:38.012Z,59.00
2017-11-25T06:25:05.770Z,59.20
2017-11-25T06:27:33.567Z,56.90
2017-11-25T06:30:02.140Z,57.80
2017-11-25T06:32:29.912Z,57.70
2017-11-25T06:34:57.780Z,49.40
2017-11-25T06:37:25.641Z,50.20
2017-11-25T06:39:54.270Z,52.40
2017-11-25T06:42:22.076Z,52.30
2017-11-25T06:44:49.983Z,53.20
2017-11-25T06:47:17.871Z,54.30
2017-11-25T06:49:45.695Z,56.50
2017-11-25T06:52:13.590Z,63.00
2017-11-25T06:54:41.304Z,62.10
2017-11-25T06:57:09.026Z,57.10
2017-11-25T06:59:37.642Z,58.20
2017-11-25T07:02:05.356Z,58.20
2017-11-25T07:04:33.143Z,57.40
2017-11-25T07:07:00.879Z,54.30
2017-11-25T07:09:28.651Z,56.90
2017-11-25T07:11:56.412Z,56.50
2017-11-25T07:14:25.317Z,49.30
2017-11-25T07:16:53.103Z,54.70
2017-11-25T07:19:20.931Z,56.70
2017-11-25T07:21:48.834Z,48.90
2017-11-25T07:24:16.653Z,49.60
2017-11-25T07:26:44.395Z,59.40
2017-11-25T07:29:12.195Z,53.90
2017-11-25T07:31:39.999Z,57.60
2017-11-25T07:34:07.776Z,56.70
2017-11-25T07:36:35.643Z,54.50
2017-11-25T07:39:03.450Z,55.50
2017-11-25T07:41:31.228Z,53.20
2017-11-25T07:43:59.023Z,55.00
2017-11-25T07:46:26.845Z,55.30
2017-11-25T07:48:54.648Z,54.60
2017-11-25T07:51:22.556Z,54.40
2017-11-25T07:53:51.118Z,52.50
2017-11-25T07:56:19.854Z,52.10
2017-11-25T07:58:47.583Z,54.60
2017-11-25T08:01:15.412Z,54.50
2017-11-25T08:03:43.212Z,54.50
2017-11-25T08:06:11.065Z,54.80
2017-11-25T08:08:38.810Z,54.90
2017-11-25T08:11:07.002Z,55.10
2017-11-25T08:13:34.908Z,54.80
2017-11-25T08:16:02.811Z,54.50
2017-11-25T08:18:30.776Z,54.40
2017-11-25T08:20:58.687Z,54.50
2017-11-25T08:23:26.534Z,54.50
2017-11-25T08:25:54.497Z,54.40
2017-11-25T08:28:22.389Z,54.60
2017-11-25T08:30:50.250Z,54.40
2017-11-25T08:33:18.208Z,54.40
2017-11-25T08:35:46.545Z,54.80
2017-11-25T08:38:14.505Z,54.90
2017-11-25T08:40:43.132Z,54.70
2017-11-25T08:43:12.802Z,54.60
2017-11-25T08:45:42.224Z,54.50
2017-11-25T08:48:10.873Z,54.20
2017-11-25T08:50:38.741Z,54.10
2017-11-25T08:53:06.532Z,54.10
2017-11-25T08:55:34.432Z,54.00
2017-11-25T08:58:02.329Z,54.10
2017-11-25T09:00:30.225Z,54.00
2017-11-25T09:02:58.245Z,54.20
2017-11-25T09:05:26.147Z,54.00
2017-11-25T09:07:54.112Z,54.30
2017-11-25T09:10:21.938Z,53.70
2017-11-25T09:12:49.820Z,53.70
2017-11-25T09:15:17.676Z,53.80
2017-11-25T09:17:46.422Z,53.80
2017-11-25T09:20:14.342Z,53.60
2017-11-25T09:22:42.306Z,53.80
2017-11-25T09:25:11.275Z,53.60
2017-11-25T09:27:39.102Z,53.50
2017-11-25T09:30:06.967Z,53.80
2017-11-25T09:32:34.799Z,53.70
2017-11-25T09:35:06.379Z,53.80
2017-11-25T09:37:34.239Z,53.80
2017-11-25T09:40:02.109Z,53.80
2017-11-25T09:42:31.022Z,53.20
2017-11-25T09:45:00.647Z,53.20
2017-11-25T09:47:28.489Z,53.30
2017-11-25T09:49:56.304Z,53.50
2017-11-25T09:52:24.219Z,53.50
2017-11-25T09:54:52.781Z,53.90
2017-11-25T09:57:20.644Z,53.80
2017-11-25T09:59:48.422Z,53.70
2017-11-25T10:02:16.219Z,54.10
2017-11-25T10:04:44.282Z,54.10
2017-11-25T10:07:12.127Z,53.70
2017-11-25T10:09:40.001Z,53.70
2017-11-25T10:12:09.155Z,53.30
2017-11-25T10:14:36.946Z,53.60
2017-11-25T10:17:04.706Z,53.20
2017-11-25T10:19:32.511Z,53.20
2017-11-25T10:22:01.094Z,52.90
2017-11-25T10:24:30.227Z,52.80
2017-11-25T10:26:58.038Z,52.80
2017-11-25T10:29:25.787Z,53.00
2017-11-25T10:31:53.527Z,53.20
2017-11-25T10:34:21.335Z,53.30
2017-11-25T10:36:50.085Z,53.30
2017-11-25T10:39:17.966Z,53.20
2017-11-25T10:41:45.751Z,52.90
2017-11-25T10:44:13.637Z,53.50
2017-11-25T10:46:41.446Z,53.40
2017-11-25T10:49:09.417Z,53.20
2017-11-25T10:51:37.211Z,53.10
2017-11-25T10:54:05.656Z,52.90
2017-11-25T10:56:35.258Z,52.60
2017-11-25T10:59:03.122Z,52.60
2017-11-25T11:01:31.665Z,52.60
2017-11-25T11:03:59.501Z,52.80
2017-11-25T11:06:27.298Z,53.00
2017-11-25T11:08:55.081Z,48.10
2017-11-25T11:11:29.687Z,55.10
2017-11-25T11:13:57.649Z,49.50
2017-11-25T11:16:31.441Z,52.00
2017-11-25T11:19:02.269Z,57.00
2017-11-25T11:21:30.129Z,56.90
2017-11-25T11:23:58.069Z,56.00
2017-11-25T11:26:25.951Z,56.60
2017-11-25T11:28:54.589Z,56.30
2017-11-25T11:46:56.760Z,57.10
2017-11-25T11:49:26.065Z,56.80
2017-11-25T11:51:54.201Z,56.80
2017-11-25T11:54:23.452Z,57.00
2017-11-25T11:56:51.376Z,57.10
2017-11-25T11:59:26.703Z,58.00
2017-11-25T12:01:54.737Z,57.40
2017-11-25T12:04:22.701Z,57.30
2017-11-25T12:06:50.590Z,57.30
2017-11-25T12:09:18.524Z,57.30
2017-11-25T12:11:46.515Z,57.10
2017-11-25T12:14:16.890Z,57.10
2017-11-25T12:16:45.552Z,56.80
2017-11-25T12:19:14.669Z,56.70
2017-11-25T12:21:42.628Z,55.80
2017-11-25T12:24:10.522Z,54.60
2017-11-25T12:26:45.336Z,54.80
2017-11-25T12:29:14.292Z,55.00
2017-11-25T12:31:42.338Z,54.90
2017-11-25T12:34:10.411Z,55.30
2017-11-25T12:36:39.597Z,50.20
2017-11-25T12:39:08.669Z,55.60
2017-11-25T12:41:36.776Z,50.30
2017-11-25T12:44:09.248Z,55.90
2017-11-25T13:00:47.781Z,50.50
2017-11-25T13:03:15.744Z,52.30
2017-11-25T13:05:43.571Z,52.50
2017-11-25T13:08:11.425Z,55.60
2017-11-25T13:10:39.153Z,54.80
2017-11-25T13:13:06.981Z,53.40
2017-11-25T13:15:34.854Z,58.10
2017-11-25T13:18:02.693Z,52.60
2017-11-25T13:20:30.589Z,54.00
2017-11-25T13:22:59.317Z,55.70
2017-11-25T13:25:28.370Z,52.50
2017-11-25T13:27:56.197Z,52.50
2017-11-25T13:30:25.549Z,52.30
2017-11-25T13:32:54.819Z,58.10
2017-11-25T13:35:22.570Z,54.10
2017-11-25T13:37:50.344Z,55.40
2017-11-25T13:40:19.169Z,51.50
2017-11-25T13:42:47.071Z,51.70
2017-11-25T13:45:15.088Z,56.20
2017-11-25T13:47:44.134Z,52.10
2017-11-25T13:50:12.821Z,52.20
2017-11-25T13:52:40.847Z,52.20
2017-11-25T13:55:15.879Z,52.10
2017-11-25T13:57:44.009Z,51.80
2017-11-25T14:00:15.920Z,52.90
2017-11-25T14:16:21.589Z,59.30
2017-11-25T14:22:23.472Z,57.20
2017-11-25T14:24:59.609Z,59.30
2017-11-25T14:27:46.758Z,57.30
2017-11-25T14:30:45.650Z,58.80
2017-11-25T14:33:14.105Z,56.60
2017-11-25T14:35:49.980Z,56.50
2017-11-25T14:45:26.057Z,59.60
2017-11-25T14:47:55.064Z,57.50
2017-11-25T14:50:27.623Z,62.30
2017-11-25T14:59:26.126Z,64.00
2017-11-25T15:02:00.848Z,56.20
2017-11-25T15:04:29.771Z,62.10
2017-11-25T15:07:05.184Z,58.20
2017-11-25T15:09:33.733Z,57.40
2017-11-25T15:12:01.979Z,59.00
2017-11-25T15:14:30.029Z,58.50
2017-11-25T15:16:58.035Z,57.50
2017-11-25T15:19:34.743Z,57.90
2017-11-25T15:22:05.039Z,61.80
2017-11-25T15:24:32.924Z,61.70
2017-11-25T15:27:04.222Z,57.50
2017-11-25T15:29:32.054Z,60.50
2017-11-25T15:31:59.970Z,63.90
2017-11-25T15:34:27.803Z,58.40
2017-11-25T15:36:55.623Z,58.50
2017-11-25T15:39:23.843Z,58.90
2017-11-25T15:41:52.589Z,59.60
2017-11-25T15:44:20.453Z,59.50
2017-11-25T15:46:49.060Z,59.90
2017-11-25T15:49:16.974Z,60.00
2017-11-25T15:51:44.859Z,57.50
2017-11-25T15:54:12.926Z,58.50
2017-11-25T15:56:40.955Z,57.70
2017-11-25T15:59:09.729Z,59.10
2017-11-25T16:15:48.554Z,58.80
2017-11-25T16:18:16.769Z,58.60
2017-11-25T16:20:49.516Z,56.90
2017-11-25T16:23:17.411Z,56.90
2017-11-25T16:25:46.300Z,66.60
2017-11-25T16:28:15.443Z,58.10
2017-11-25T16:30:44.775Z,57.20
2017-11-25T16:33:12.663Z,61.50
2017-11-25T16:35:43.980Z,62.90
2017-11-25T16:38:11.926Z,62.80
2017-11-25T16:40:39.910Z,58.70
2017-11-25T16:43:07.783Z,61.40
2017-11-25T16:45:40.414Z,60.00
2017-11-25T17:28:06.280Z,59.50
2017-11-25T17:30:34.952Z,59.60
2017-11-25T17:35:50.177Z,62.80
2017-11-25T17:38:18.135Z,58.40
2017-11-25T17:40:45.986Z,63.90
2017-11-25T17:43:14.665Z,57.70
2017-11-25T17:45:43.351Z,56.90
2017-11-25T17:48:27.715Z,58.70
2017-11-25T17:50:55.522Z,58.80
2017-11-25T17:53:23.432Z,61.60
2017-11-25T17:55:51.308Z,63.70
2017-11-25T17:58:19.090Z,58.70
2017-11-25T18:00:47.628Z,58.80
2017-11-25T18:03:16.181Z,65.00
2017-11-25T18:05:43.944Z,65.70
2017-11-25T18:08:11.701Z,56.00
2017-11-25T18:10:40.273Z,57.80
2017-11-25T18:13:08.119Z,57.70
2017-11-25T18:15:35.929Z,57.30
2017-11-25T18:18:04.509Z,62.50
2017-11-25T18:20:32.311Z,62.30
2017-11-25T18:23:00.111Z,57.20
2017-11-25T18:25:27.876Z,54.40
2017-11-25T18:27:55.705Z,63.60
2017-11-25T18:30:23.484Z,59.90
2017-11-25T18:32:51.297Z,56.50
2017-11-25T18:35:19.144Z,60.20
2017-11-25T18:37:46.921Z,56.50
2017-11-25T18:40:14.848Z,56.70
2017-11-25T18:42:42.740Z,59.60
2017-11-25T18:45:10.553Z,59.20
2017-11-25T18:47:38.460Z,58.50
2017-11-25T18:50:06.294Z,59.80
2017-11-25T18:52:34.044Z,63.00
2017-11-25T18:55:01.959Z,64.70
2017-11-25T18:57:29.749Z,59.40
2017-11-25T18:59:57.552Z,58.60
2017-11-25T19:02:27.011Z,59.40
2017-11-25T19:04:54.865Z,59.10
2017-11-25T19:07:22.707Z,59.30
2017-11-25T19:09:51.462Z,62.00
2017-11-25T19:12:19.245Z,61.90
2017-11-25T19:14:47.103Z,58.10
2017-11-25T19:17:14.963Z,67.70
2017-11-25T19:19:42.773Z,57.60
2017-11-25T19:22:10.620Z,57.80
2017-11-25T19:24:38.461Z,56.90
2017-11-25T19:27:06.228Z,62.20
2017-11-25T19:29:34.064Z,62.80
2017-11-25T19:32:01.857Z,62.70
2017-11-25T19:34:29.743Z,58.90
2017-11-25T19:36:57.509Z,59.50
2017-11-25T19:39:26.242Z,57.20
2017-11-25T19:41:54.076Z,57.00
2017-11-25T19:44:21.919Z,62.60
2017-11-25T19:46:49.909Z,58.10
2017-11-25T19:49:17.751Z,58.90
2017-11-25T19:51:45.574Z,59.60
2017-11-25T19:54:14.302Z,57.60
2017-11-25T19:56:42.134Z,57.50
2017-11-25T19:59:10.727Z,63.40
2017-11-25T20:01:38.633Z,63.40
2017-11-25T20:04:06.516Z,59.00
2017-11-25T20:06:34.436Z,55.90
2017-11-25T20:09:03.024Z,56.20
2017-11-25T20:11:31.629Z,60.20
2017-11-25T20:13:59.578Z,60.10
2017-11-25T20:16:27.437Z,61.50
2017-11-25T20:18:55.268Z,54.30
2017-11-25T20:21:23.160Z,58.20
2017-11-25T20:23:51.783Z,55.50
2017-11-25T20:26:19.702Z,55.50
2017-11-25T20:28:47.703Z,56.70
2017-11-25T20:31:15.574Z,58.80
2017-11-25T20:33:43.490Z,55.50
2017-11-25T20:36:11.329Z,56.70
2017-11-25T20:38:39.119Z,56.00
2017-11-25T20:41:06.942Z,61.50
2017-11-25T20:43:34.751Z,57.50
2017-11-25T20:46:02.568Z,58.40
2017-11-25T20:48:30.333Z,60.50
2017-11-25T20:50:59.044Z,60.80
2017-11-25T20:53:26.867Z,61.00
2017-11-25T20:55:54.816Z,65.50
2017-11-25T20:58:22.723Z,55.20
2017-11-25T21:00:50.554Z,57.90
2017-11-25T21:03:18.419Z,56.20
2017-11-25T21:05:46.229Z,56.00
2017-11-25T21:08:14.030Z,54.80
2017-11-25T21:10:41.785Z,55.40
2017-11-25T21:13:10.402Z,58.20
2017-11-25T21:15:39.437Z,58.10
2017-11-25T21:18:08.026Z,65.00
2017-11-25T21:20:35.851Z,65.00
2017-11-25T21:23:03.669Z,58.30
2017-11-25T21:25:31.462Z,58.80
2017-11-25T21:27:59.242Z,61.40
2017-11-25T21:30:27.825Z,57.20
2017-11-25T21:32:59.329Z,60.30
2017-11-25T21:35:27.172Z,53.70
2017-11-25T21:37:54.959Z,59.40
2017-11-25T21:40:22.801Z,57.10
2017-11-25T21:42:50.600Z,58.80
2017-11-25T21:45:19.322Z,53.00
2017-11-25T21:47:47.300Z,53.20
2017-11-25T21:50:15.126Z,53.40
2017-11-25T21:52:42.903Z,54.60
2017-11-25T21:55:10.703Z,56.30
2017-11-25T21:57:39.300Z,55.60
2017-11-25T22:00:07.224Z,55.50
2017-11-25T22:02:35.037Z,56.60
2017-11-25T22:05:02.986Z,56.80
2017-11-25T22:07:30.896Z,55.00
2017-11-25T22:09:59.928Z,58.70
2017-11-25T22:12:27.843Z,56.80
2017-11-25T22:14:55.697Z,56.50
2017-11-25T22:17:24.491Z,57.10
2017-11-25T22:19:52.427Z,57.10
2017-11-25T22:22:20.372Z,56.50
2017-11-25T22:24:58.919Z,57.70
2017-11-25T22:27:28.086Z,55.40
2017-11-25T22:29:56.184Z,59.30
2017-11-25T22:32:24.158Z,56.50
2017-11-25T22:34:52.145Z,64.90
2017-11-25T22:37:20.016Z,56.40
2017-11-25T22:39:47.993Z,56.20
2017-11-25T22:42:15.924Z,62.90
2017-11-25T22:55:18.631Z,58.40
2017-11-25T22:57:47.254Z,64.10
2017-11-25T23:00:15.096Z,64.30
2017-11-25T23:02:42.987Z,59.00
2017-11-25T23:05:10.799Z,59.90
2017-11-25T23:07:38.627Z,63.80
2017-11-25T23:10:06.434Z,58.00
2017-11-25T23:12:34.828Z,59.00
2017-11-25T23:15:02.593Z,61.20
2017-11-25T23:17:30.414Z,57.80
2017-11-25T23:19:58.255Z,59.40
2017-11-25T23:22:26.005Z,59.90
2017-11-25T23:24:53.861Z,60.00
2017-11-25T23:27:21.702Z,60.90
2017-11-25T23:29:49.445Z,64.60
2017-11-25T23:32:17.317Z,64.40
2017-11-25T23:34:45.139Z,63.00
2017-11-25T23:37:12.998Z,64.10
2017-11-25T23:39:40.823Z,65.00
2017-11-25T23:42:08.585Z,57.70
2017-11-25T23:44:36.456Z,60.90
2017-11-25T23:47:04.398Z,61.20
2017-11-25T23:49:32.960Z,64.20
2017-11-25T23:52:00.800Z,63.70
2017-11-25T23:54:28.620Z,64.40
2017-11-25T23:56:57.146Z,59.90
2017-11-25T23:59:24.928Z,59.70
